Time;durP1;ratioP1;P1;durP2;ratioP2;P2;SDS_P1;SDS_P2;PMS_P1;PMS_P2;Temp;Humidity;BMP_temperature;BMP_pressure;BME280_temperature;BME280_humidity;BME280_pressure;Samples;Min_cycle;Max_cycle;Signal;HPM_P1;HPM_P2
2022/11/30 00:01:50;;;;;;;0.00;0.00;;;;;;;;;;4993676;28;20038;-89
2022/11/30 00:04:16;;;;;;;0.00;0.00;;;;;;;;;;4993328;28;20411;-88
2022/11/30 00:06:42;;;;;;;0.00;0.00;;;;;;;;;;4993863;28;20039;-88
2022/11/30 00:09:08;;;;;;;0.00;0.00;;;;;;;;;;4993257;28;20045;-88
2022/11/30 00:11:34;;;;;;;0.20;0.10;;;;;;;;;;4993696;28;20053;-90
2022/11/30 00:14:00;;;;;;;0.10;0.08;;;;;;;;;;4993463;28;20081;-89
2022/11/30 00:16:26;;;;;;;0.50;0.47;;;;;;;;;;4993153;28;20038;-88
2022/11/30 00:18:52;;;;;;;0.00;0.00;;;;;;;;;;4993043;28;20055;-90
2022/11/30 00:21:18;;;;;;;0.00;0.00;;;;;;;;;;4993093;28;20081;-89
2022/11/30 00:23:45;;;;;;;0.00;0.00;;;;;;;;;;4993612;28;20038;-90
2022/11/30 00:26:13;;;;;;;0.00;0.00;;;;;;;;;;4993199;28;20046;-91
2022/11/30 00:28:39;;;;;;;0.00;0.00;;;;;;;;;;4993202;28;20042;-89
2022/11/30 00:31:07;;;;;;;0.00;0.00;;;;;;;;;;4993224;28;20491;-90
2022/11/30 00:33:34;;;;;;;0.00;0.00;;;;;;;;;;4993724;28;20053;-91
2022/11/30 00:36:01;;;;;;;0.00;0.00;;;;;;;;;;4992750;28;20065;-91
2022/11/30 00:38:27;;;;;;;0.00;0.00;;;;;;;;;;4994739;28;20042;-90
2022/11/30 00:40:55;;;;;;;0.00;0.00;;;;;;;;;;5000270;28;20097;-92
2022/11/30 00:43:21;;;;;;;0.00;0.00;;;;;;;;;;5000189;28;20046;-90
2022/11/30 00:45:47;;;;;;;0.00;0.00;;;;;;;;;;4999628;28;20046;-90
2022/11/30 00:48:13;;;;;;;0.00;0.00;;;;;;;;;;4999868;28;20386;-90
2022/11/30 00:50:39;;;;;;;0.00;0.00;;;;;;;;;;4999486;28;20133;-89
2022/11/30 00:53:05;;;;;;;0.38;0.13;;;;;;;;;;4999849;28;20107;-90
2022/11/30 00:55:32;;;;;;;0.00;0.00;;;;;;;;;;4999549;28;20042;-90
2022/11/30 00:57:58;;;;;;;0.00;0.00;;;;;;;;;;4999969;28;20116;-90
2022/11/30 01:00:24;;;;;;;0.05;0.05;;;;;;;;;;4999306;28;20038;-89
2022/11/30 01:02:54;;;;;;;0.00;0.00;;;;;;;;;;4999744;28;20396;-89
2022/11/30 01:05:21;;;;;;;0.00;0.00;;;;;;;;;;4999232;28;20042;-90
2022/11/30 01:07:47;;;;;;;0.00;0.00;;;;;;;;;;4999322;28;20042;-90
2022/11/30 01:10:13;;;;;;;0.32;0.00;;;;;;;;;;4999360;28;20046;-90
2022/11/30 01:12:39;;;;;;;0.00;0.00;;;;;;;;;;4999281;28;20049;-90
2022/11/30 01:15:05;;;;;;;0.25;0.20;;;;;;;;;;4999353;28;20042;-89
2022/11/30 01:17:31;;;;;;;0.00;0.00;;;;;;;;;;4999311;28;20088;-88
2022/11/30 01:19:57;;;;;;;0.00;0.00;;;;;;;;;;4998858;28;20054;-89
2022/11/30 01:22:23;;;;;;;0.00;0.00;;;;;;;;;;4999072;28;20042;-90
2022/11/30 01:24:49;;;;;;;0.00;0.00;;;;;;;;;;4998825;28;20042;-89
2022/11/30 01:27:15;;;;;;;0.00;0.00;;;;;;;;;;4999648;28;20088;-90
2022/11/30 01:29:41;;;;;;;0.00;0.00;;;;;;;;;;4999099;28;20078;-90
2022/11/30 01:32:07;;;;;;;0.00;0.00;;;;;;;;;;4999511;28;20108;-89
2022/11/30 01:34:33;;;;;;;0.00;0.00;;;;;;;;;;4998891;28;20372;-89
2022/11/30 01:36:59;;;;;;;0.00;0.00;;;;;;;;;;4998981;28;20049;-89
2022/11/30 01:39:25;;;;;;;0.00;0.00;;;;;;;;;;4999237;28;20399;-89
2022/11/30 01:41:53;;;;;;;0.00;0.00;;;;;;;;;;4999078;28;20038;-89
2022/11/30 01:44:25;;;;;;;0.00;0.00;;;;;;;;;;4999382;28;20069;-90
2022/11/30 01:46:54;;;;;;;0.00;0.00;;;;;;;;;;4998643;28;20046;-88
2022/11/30 01:49:31;;;;;;;0.00;0.00;;;;;;;;;;4999053;28;20085;-90
2022/11/30 01:52:14;;;;;;;0.00;0.00;;;;;;;;;;4994860;28;20052;-90
2022/11/30 01:54:40;;;;;;;0.00;0.00;;;;;;;;;;4996263;28;20046;-88
2022/11/30 01:57:13;;;;;;;0.00;0.00;;;;;;;;;;4995562;28;20129;-90
2022/11/30 01:59:39;;;;;;;0.00;0.00;;;;;;;;;;4976859;28;20503;-89
2022/11/30 02:02:05;;;;;;;0.00;0.00;;;;;;;;;;4995657;28;20050;-89
2022/11/30 02:04:33;;;;;;;0.28;0.10;;;;;;;;;;4995670;28;20042;-88
2022/11/30 02:06:59;;;;;;;0.00;0.00;;;;;;;;;;4995883;28;20129;-90
2022/11/30 02:09:26;;;;;;;0.00;0.00;;;;;;;;;;4995666;28;20042;-91
2022/11/30 02:11:52;;;;;;;0.00;0.00;;;;;;;;;;4995597;28;20395;-89
2022/11/30 02:14:33;;;;;;;0.00;0.00;;;;;;;;;;4995731;28;20053;-89
2022/11/30 02:17:05;;;;;;;0.00;0.00;;;;;;;;;;4995452;28;20061;-89
2022/11/30 02:19:40;;;;;;;0.00;0.00;;;;;;;;;;4995473;28;20066;-90
2022/11/30 02:22:10;;;;;;;0.55;0.45;;;;;;;;;;4995474;28;20404;-90
2022/11/30 02:24:39;;;;;;;0.00;0.00;;;;;;;;;;4996000;28;20127;-90
2022/11/30 02:27:11;;;;;;;0.00;0.00;;;;;;;;;;4995169;28;20053;-91
2022/11/30 02:29:40;;;;;;;0.00;0.00;;;;;;;;;;4995380;28;20049;-91
2022/11/30 02:32:09;;;;;;;0.00;0.00;;;;;;;;;;4994839;28;20046;-89
2022/11/30 02:34:36;;;;;;;0.00;0.00;;;;;;;;;;4995059;28;20054;-89
2022/11/30 02:37:04;;;;;;;0.00;0.00;;;;;;;;;;4994944;28;20065;-90
2022/11/30 02:39:30;;;;;;;0.22;0.00;;;;;;;;;;4994899;28;20042;-89
2022/11/30 02:41:56;;;;;;;0.00;0.00;;;;;;;;;;4994924;28;20065;-89
2022/11/30 02:44:23;;;;;;;0.00;0.00;;;;;;;;;;4994939;28;20049;-90
2022/11/30 02:46:55;;;;;;;0.20;0.20;;;;;;;;;;4995335;28;20042;-90
2022/11/30 02:49:44;;;;;;;0.28;0.20;;;;;;;;;;4994868;28;20046;-89
2022/11/30 02:52:10;;;;;;;0.00;0.00;;;;;;;;;;4995113;28;20042;-91
2022/11/30 02:54:36;;;;;;;0.00;0.00;;;;;;;;;;4994950;28;20042;-90
2022/11/30 02:57:02;;;;;;;0.00;0.00;;;;;;;;;;4994589;28;20365;-90
2022/11/30 02:59:29;;;;;;;0.00;0.00;;;;;;;;;;4994999;28;20400;-89
2022/11/30 03:01:55;;;;;;;0.00;0.00;;;;;;;;;;4994132;28;20034;-91
2022/11/30 03:04:21;;;;;;;0.82;0.50;;;;;;;;;;4994613;28;20046;-90
2022/11/30 03:06:47;;;;;;;0.00;0.00;;;;;;;;;;4994530;28;20110;-89
2022/11/30 03:09:13;;;;;;;0.05;0.00;;;;;;;;;;4994526;28;20119;-90
2022/11/30 03:11:39;;;;;;;0.10;0.00;;;;;;;;;;4994290;28;20489;-91
2022/11/30 03:14:05;;;;;;;0.00;0.00;;;;;;;;;;4994317;28;20050;-91
2022/11/30 03:16:32;;;;;;;0.00;0.00;;;;;;;;;;4994211;28;20097;-90
2022/11/30 03:18:59;;;;;;;0.00;0.00;;;;;;;;;;4994634;28;20073;-90
2022/11/30 03:21:25;;;;;;;0.38;0.28;;;;;;;;;;4994414;28;20053;-90
2022/11/30 03:23:51;;;;;;;0.00;0.00;;;;;;;;;;4995220;28;20476;-89
2022/11/30 03:26:17;;;;;;;0.00;0.00;;;;;;;;;;4994269;28;20092;-91
2022/11/30 03:28:43;;;;;;;0.00;0.00;;;;;;;;;;4994657;28;20376;-90
2022/11/30 03:31:13;;;;;;;0.30;0.20;;;;;;;;;;4994216;28;20046;-90
2022/11/30 03:33:42;;;;;;;0.00;0.00;;;;;;;;;;4994740;28;20129;-91
2022/11/30 03:36:10;;;;;;;0.00;0.00;;;;;;;;;;4993821;28;20046;-92
2022/11/30 03:38:36;;;;;;;0.00;0.00;;;;;;;;;;4993999;28;20049;-91
2022/11/30 03:41:07;;;;;;;0.00;0.00;;;;;;;;;;4994251;28;20136;-91
2022/11/30 03:43:33;;;;;;;0.00;0.00;;;;;;;;;;4994474;28;20038;-90
2022/11/30 03:45:59;;;;;;;0.32;0.32;;;;;;;;;;4993627;28;20047;-91
2022/11/30 03:48:25;;;;;;;0.00;0.00;;;;;;;;;;4994019;28;20391;-90
2022/11/30 03:50:51;;;;;;;0.00;0.00;;;;;;;;;;4993890;28;20108;-89
2022/11/30 03:53:17;;;;;;;0.22;0.08;;;;;;;;;;4993643;28;20042;-89
2022/11/30 03:55:43;;;;;;;0.00;0.00;;;;;;;;;;4993432;28;20039;-89
2022/11/30 03:58:09;;;;;;;0.00;0.00;;;;;;;;;;4992911;28;20039;-89
2022/11/30 04:00:36;;;;;;;0.05;0.05;;;;;;;;;;4993420;28;20368;-89
2022/11/30 04:03:02;;;;;;;0.00;0.00;;;;;;;;;;4993331;28;20043;-91
2022/11/30 04:05:28;;;;;;;0.00;0.00;;;;;;;;;;4993936;28;20038;-90
2022/11/30 04:07:54;;;;;;;0.00;0.00;;;;;;;;;;4993364;28;20125;-90
2022/11/30 04:10:20;;;;;;;0.10;0.10;;;;;;;;;;4993267;28;20125;-89
2022/11/30 04:12:46;;;;;;;0.00;0.00;;;;;;;;;;4993157;28;20526;-89
2022/11/30 04:15:12;;;;;;;0.00;0.00;;;;;;;;;;4992914;28;20081;-90
2022/11/30 04:17:38;;;;;;;0.10;0.10;;;;;;;;;;4993155;28;20129;-91
2022/11/30 04:20:04;;;;;;;0.00;0.00;;;;;;;;;;4993166;28;20077;-91
2022/11/30 04:22:30;;;;;;;0.00;0.00;;;;;;;;;;4993019;28;20038;-90
2022/11/30 04:24:56;;;;;;;0.00;0.00;;;;;;;;;;4993737;28;20435;-91
2022/11/30 04:27:22;;;;;;;0.00;0.00;;;;;;;;;;4993106;28;20092;-92
2022/11/30 04:29:48;;;;;;;0.00;0.00;;;;;;;;;;4993468;28;20053;-90
2022/11/30 04:32:14;;;;;;;0.00;0.00;;;;;;;;;;4993338;28;20403;-89
2022/11/30 04:34:40;;;;;;;0.00;0.00;;;;;;;;;;4993210;28;20038;-91
2022/11/30 04:37:06;;;;;;;0.00;0.00;;;;;;;;;;4992889;28;20038;-91
2022/11/30 04:39:34;;;;;;;0.00;0.00;;;;;;;;;;4993167;28;20046;-90
2022/11/30 04:42:01;;;;;;;0.00;0.00;;;;;;;;;;4993210;28;20045;-91
2022/11/30 04:44:27;;;;;;;0.63;0.10;;;;;;;;;;4993429;28;20046;-89
2022/11/30 04:46:53;;;;;;;0.43;0.13;;;;;;;;;;4993136;28;20129;-90
2022/11/30 04:49:19;;;;;;;0.00;0.00;;;;;;;;;;4992718;28;20498;-89
2022/11/30 04:51:45;;;;;;;0.00;0.00;;;;;;;;;;4992887;28;20112;-89
2022/11/30 04:54:11;;;;;;;0.00;0.00;;;;;;;;;;4992963;28;20038;-90
2022/11/30 04:56:37;;;;;;;0.00;0.00;;;;;;;;;;4993306;28;20078;-90
2022/11/30 04:59:03;;;;;;;0.00;0.00;;;;;;;;;;4992742;28;20038;-91
2022/11/30 05:01:29;;;;;;;0.00;0.00;;;;;;;;;;4993026;28;20420;-90
2022/11/30 05:03:58;;;;;;;0.00;0.00;;;;;;;;;;4993365;28;20097;-90
2022/11/30 05:06:24;;;;;;;0.00;0.00;;;;;;;;;;4993032;28;20057;-90
2022/11/30 05:08:50;;;;;;;0.00;0.00;;;;;;;;;;4992818;28;20042;-90
2022/11/30 05:11:16;;;;;;;0.00;0.00;;;;;;;;;;4992972;28;20475;-90
2022/11/30 05:13:42;;;;;;;0.00;0.00;;;;;;;;;;4992478;28;20129;-91
2022/11/30 05:16:09;;;;;;;0.00;0.00;;;;;;;;;;4992749;28;20129;-90
2022/11/30 05:18:35;;;;;;;0.00;0.00;;;;;;;;;;4992399;28;20077;-90
2022/11/30 05:21:01;;;;;;;0.00;0.00;;;;;;;;;;4992663;28;20050;-90
2022/11/30 05:23:27;;;;;;;0.00;0.00;;;;;;;;;;4992545;28;20553;-89
2022/11/30 05:25:53;;;;;;;0.00;0.00;;;;;;;;;;4993522;28;20046;-89
2022/11/30 05:28:19;;;;;;;0.00;0.00;;;;;;;;;;4996255;28;20093;-91
2022/11/30 05:30:46;;;;;;;0.15;0.08;;;;;;;;;;4996715;28;20084;-91
2022/11/30 05:33:12;;;;;;;0.00;0.00;;;;;;;;;;4995995;28;20054;-90
2022/11/30 05:35:38;;;;;;;0.00;0.00;;;;;;;;;;4996530;28;20046;-89
2022/11/30 05:38:04;;;;;;;0.00;0.00;;;;;;;;;;4996286;28;20146;-90
2022/11/30 05:40:32;;;;;;;0.00;0.00;;;;;;;;;;4996747;28;20070;-90
2022/11/30 05:42:58;;;;;;;0.45;0.45;;;;;;;;;;4996186;28;20074;-89
2022/11/30 05:45:25;;;;;;;0.10;0.10;;;;;;;;;;4996303;28;20073;-90
2022/11/30 05:47:51;;;;;;;0.00;0.00;;;;;;;;;;4996565;28;20046;-90
2022/11/30 05:50:17;;;;;;;0.00;0.00;;;;;;;;;;4996318;28;20136;-91
2022/11/30 05:52:43;;;;;;;0.00;0.00;;;;;;;;;;4996281;28;20052;-89
2022/11/30 05:55:09;;;;;;;0.88;0.20;;;;;;;;;;4996194;28;20046;-91
2022/11/30 05:57:36;;;;;;;0.28;0.20;;;;;;;;;;4996118;28;20116;-90
2022/11/30 06:00:03;;;;;;;0.00;0.00;;;;;;;;;;4996062;28;20038;-91
2022/11/30 06:02:29;;;;;;;0.00;0.00;;;;;;;;;;4996054;28;20069;-90
2022/11/30 06:04:55;;;;;;;1.85;0.43;;;;;;;;;;4995969;28;20054;-90
2022/11/30 06:07:21;;;;;;;0.00;0.00;;;;;;;;;;4996147;28;20050;-90
2022/11/30 06:09:47;;;;;;;0.00;0.00;;;;;;;;;;4995547;28;20042;-89
2022/11/30 06:12:13;;;;;;;0.00;0.00;;;;;;;;;;4995778;28;20046;-90
2022/11/30 06:14:39;;;;;;;0.00;0.00;;;;;;;;;;4995188;28;20435;-88
2022/11/30 06:17:05;;;;;;;0.45;0.45;;;;;;;;;;4995402;28;20052;-90
2022/11/30 06:19:31;;;;;;;0.00;0.00;;;;;;;;;;4994797;28;20054;-91
2022/11/30 06:21:57;;;;;;;0.00;0.00;;;;;;;;;;4995467;28;20038;-89
2022/11/30 06:24:23;;;;;;;0.00;0.00;;;;;;;;;;4995087;28;20462;-90
2022/11/30 06:26:49;;;;;;;0.00;0.00;;;;;;;;;;4995577;28;20042;-88
2022/11/30 06:29:15;;;;;;;0.00;0.00;;;;;;;;;;4995180;28;20047;-90
2022/11/30 06:31:41;;;;;;;0.00;0.00;;;;;;;;;;4995405;28;20043;-88
2022/11/30 06:34:07;;;;;;;0.00;0.00;;;;;;;;;;4995100;28;20038;-90
2022/11/30 06:36:33;;;;;;;0.00;0.00;;;;;;;;;;4994755;28;20049;-89
2022/11/30 06:38:59;;;;;;;0.00;0.00;;;;;;;;;;4994490;28;20042;-89
2022/11/30 06:41:25;;;;;;;0.00;0.00;;;;;;;;;;4995237;28;20053;-90
2022/11/30 06:43:52;;;;;;;0.00;0.00;;;;;;;;;;4994686;28;20042;-91
2022/11/30 06:46:18;;;;;;;0.00;0.00;;;;;;;;;;4994784;28;20050;-88
2022/11/30 06:48:47;;;;;;;0.00;0.00;;;;;;;;;;4994814;28;20133;-89
2022/11/30 06:51:13;;;;;;;0.00;0.00;;;;;;;;;;4995042;28;20134;-89
2022/11/30 06:53:41;;;;;;;0.65;0.13;;;;;;;;;;4995198;28;20077;-90
2022/11/30 06:56:08;;;;;;;0.00;0.00;;;;;;;;;;4995411;28;20042;-90
2022/11/30 06:58:35;;;;;;;0.00;0.00;;;;;;;;;;4994568;28;20129;-89
2022/11/30 07:01:01;;;;;;;0.00;0.00;;;;;;;;;;4994707;28;20085;-91
2022/11/30 07:03:27;;;;;;;0.00;0.00;;;;;;;;;;4995016;28;20074;-91
2022/11/30 07:05:53;;;;;;;0.00;0.00;;;;;;;;;;4994659;28;20369;-91
2022/11/30 07:08:19;;;;;;;0.00;0.00;;;;;;;;;;4994277;28;20218;-91
2022/11/30 07:10:46;;;;;;;0.00;0.00;;;;;;;;;;4995046;28;20046;-89
2022/11/30 07:13:13;;;;;;;0.00;0.00;;;;;;;;;;4994801;28;20049;-90
2022/11/30 07:15:39;;;;;;;0.00;0.00;;;;;;;;;;4994470;28;20096;-91
2022/11/30 07:18:05;;;;;;;0.00;0.00;;;;;;;;;;4994132;28;20034;-90
2022/11/30 07:20:31;;;;;;;0.00;0.00;;;;;;;;;;4994069;28;20077;-88
2022/11/30 07:26:05;;;;;;;0.00;0.00;;;;;;;;;;4994444;28;20399;-89
2022/11/30 07:28:28;;;;;;;0.00;0.00;;;;;;;;;;4993561;28;20058;-88
2022/11/30 07:30:54;;;;;;;0.05;0.05;;;;;;;;;;4993910;28;20049;-89
2022/11/30 07:33:20;;;;;;;0.00;0.00;;;;;;;;;;4994153;28;20122;-88
2022/11/30 07:35:46;;;;;;;0.00;0.00;;;;;;;;;;4993563;28;20193;-87
2022/11/30 07:38:12;;;;;;;0.00;0.00;;;;;;;;;;4993938;28;20042;-87
2022/11/30 07:40:38;;;;;;;0.00;0.00;;;;;;;;;;4993508;28;20061;-86
2022/11/30 07:43:04;;;;;;;0.00;0.00;;;;;;;;;;4994239;28;20049;-85
2022/11/30 07:45:30;;;;;;;0.00;0.00;;;;;;;;;;4993501;28;20109;-85
2022/11/30 07:47:58;;;;;;;0.00;0.00;;;;;;;;;;4992889;28;20049;-86
2022/11/30 07:50:24;;;;;;;0.00;0.00;;;;;;;;;;4992681;28;20069;-87
2022/11/30 07:52:50;;;;;;;0.00;0.00;;;;;;;;;;4993049;28;20491;-85
2022/11/30 07:55:18;;;;;;;0.00;0.00;;;;;;;;;;4992851;28;20089;-87
2022/11/30 07:57:44;;;;;;;0.00;0.00;;;;;;;;;;4976887;28;20129;-88
2022/11/30 08:00:11;;;;;;;0.00;0.00;;;;;;;;;;4992561;28;20074;-88
2022/11/30 08:02:37;;;;;;;0.00;0.00;;;;;;;;;;4992588;28;20041;-88
2022/11/30 08:05:03;;;;;;;0.00;0.00;;;;;;;;;;4992407;28;20046;-88
2022/11/30 08:07:29;;;;;;;0.00;0.00;;;;;;;;;;4976567;28;20042;-87
2022/11/30 08:09:55;;;;;;;0.38;0.17;;;;;;;;;;4992426;28;20042;-88
2022/11/30 08:12:21;;;;;;;0.00;0.00;;;;;;;;;;4976321;28;20455;-87
2022/11/30 08:14:47;;;;;;;0.00;0.00;;;;;;;;;;4992551;28;20053;-88
2022/11/30 08:17:13;;;;;;;0.00;0.00;;;;;;;;;;4992393;28;20092;-87
2022/11/30 08:19:39;;;;;;;0.00;0.00;;;;;;;;;;4991939;28;20140;-87
2022/11/30 08:22:05;;;;;;;0.00;0.00;;;;;;;;;;4992586;28;20050;-87
2022/11/30 08:24:31;;;;;;;0.00;0.00;;;;;;;;;;4992412;28;20065;-90
2022/11/30 08:26:57;;;;;;;0.00;0.00;;;;;;;;;;4976350;28;20080;-87
2022/11/30 08:29:23;;;;;;;0.00;0.00;;;;;;;;;;4975753;28;20039;-87
2022/11/30 08:31:49;;;;;;;0.00;0.00;;;;;;;;;;4992395;28;20062;-87
2022/11/30 08:34:15;;;;;;;0.00;0.00;;;;;;;;;;4976112;28;20129;-89
2022/11/30 08:36:42;;;;;;;0.00;0.00;;;;;;;;;;4992120;28;20381;-87
2022/11/30 08:39:11;;;;;;;0.00;0.00;;;;;;;;;;4975666;28;20111;-87
2022/11/30 08:41:38;;;;;;;0.00;0.00;;;;;;;;;;4976221;28;20038;-85
2022/11/30 08:44:04;;;;;;;0.00;0.00;;;;;;;;;;4975851;28;20066;-85
2022/11/30 08:46:30;;;;;;;0.00;0.00;;;;;;;;;;4992263;28;20042;-86
2022/11/30 08:48:59;;;;;;;0.00;0.00;;;;;;;;;;4993532;28;20081;-86
2022/11/30 08:51:25;;;;;;;0.10;0.10;;;;;;;;;;4992332;28;20395;-86
2022/11/30 08:53:52;;;;;;;0.00;0.00;;;;;;;;;;4992256;28;20057;-87
2022/11/30 08:56:23;;;;;;;0.00;0.00;;;;;;;;;;4991875;28;20061;-86
2022/11/30 08:58:50;;;;;;;0.20;0.10;;;;;;;;;;4991976;28;20395;-86
2022/11/30 09:01:20;;;;;;;0.00;0.00;;;;;;;;;;4995563;28;20046;-85
2022/11/30 09:03:48;;;;;;;0.32;0.22;;;;;;;;;;4996390;28;20070;-87
2022/11/30 09:06:22;;;;;;;0.00;0.00;;;;;;;;;;4979763;28;20043;-87
2022/11/30 09:08:48;;;;;;;0.10;0.10;;;;;;;;;;4979726;28;20074;-86
2022/11/30 09:11:14;;;;;;;0.00;0.00;;;;;;;;;;4996013;28;20450;-87
2022/11/30 09:13:41;;;;;;;0.00;0.00;;;;;;;;;;4996037;28;20074;-85
2022/11/30 09:16:07;;;;;;;0.00;0.00;;;;;;;;;;4992958;28;20042;-86
2022/11/30 09:18:33;;;;;;;0.00;0.00;;;;;;;;;;4995857;28;20046;-86
2022/11/30 09:21:03;;;;;;;0.00;0.00;;;;;;;;;;4979421;28;20100;-85
2022/11/30 09:23:29;;;;;;;0.00;0.00;;;;;;;;;;4995864;28;20041;-85
2022/11/30 09:25:59;;;;;;;0.00;0.00;;;;;;;;;;4979515;28;20391;-89
2022/11/30 09:28:25;;;;;;;0.00;0.00;;;;;;;;;;4980172;28;20050;-85
2022/11/30 09:30:51;;;;;;;0.00;0.00;;;;;;;;;;4979182;28;20372;-87
2022/11/30 09:33:18;;;;;;;0.00;0.00;;;;;;;;;;4979389;28;20043;-85
2022/11/30 09:35:44;;;;;;;0.00;0.00;;;;;;;;;;4995290;28;20050;-85
2022/11/30 09:38:09;;;;;;;0.00;0.00;;;;;;;;;;4995674;28;20046;-85
2022/11/30 09:40:39;;;;;;;0.00;0.00;;;;;;;;;;4995150;28;20080;-86
2022/11/30 09:43:30;;;;;;;0.00;0.00;;;;;;;;;;4995480;28;20042;-85
2022/11/30 09:45:58;;;;;;;0.00;0.00;;;;;;;;;;4995182;28;20057;-86
2022/11/30 09:48:44;;;;;;;0.00;0.00;;;;;;;;;;4979282;28;20591;-87
2022/11/30 09:51:14;;;;;;;0.00;0.00;;;;;;;;;;4955574;28;20475;-88
2022/11/30 09:53:42;;;;;;;0.00;0.00;;;;;;;;;;4995336;28;20526;-86
2022/11/30 09:56:31;;;;;;;0.00;0.00;;;;;;;;;;4994768;28;20097;-87
2022/11/30 09:59:00;;;;;;;0.00;0.00;;;;;;;;;;4985325;28;20058;-86
2022/11/30 10:01:26;;;;;;;0.00;0.00;;;;;;;;;;4978495;28;20034;-87
2022/11/30 10:03:52;;;;;;;0.00;0.00;;;;;;;;;;4995083;28;20049;-88
2022/11/30 10:06:23;;;;;;;0.00;0.00;;;;;;;;;;4994880;28;20125;-87
2022/11/30 10:09:07;;;;;;;0.00;0.00;;;;;;;;;;4978599;28;20058;-86
2022/11/30 10:11:36;;;;;;;0.00;0.00;;;;;;;;;;4993811;28;20061;-87
2022/11/30 10:14:17;;;;;;;0.00;0.00;;;;;;;;;;4995248;28;20187;-86
2022/11/30 10:16:55;;;;;;;0.00;0.00;;;;;;;;;;4994873;28;20093;-88
2022/11/30 10:19:40;;;;;;;0.00;0.00;;;;;;;;;;4994462;28;20431;-87
2022/11/30 10:22:38;;;;;;;0.00;0.00;;;;;;;;;;4978339;28;20046;-86
2022/11/30 10:25:13;;;;;;;0.00;0.00;;;;;;;;;;4936961;28;20470;-86
2022/11/30 10:27:45;;;;;;;0.00;0.00;;;;;;;;;;4994592;28;20046;-86
2022/11/30 10:30:22;;;;;;;0.00;0.00;;;;;;;;;;4994487;28;20065;-85
2022/11/30 10:32:55;;;;;;;0.00;0.00;;;;;;;;;;4995045;28;20080;-86
2022/11/30 10:35:27;;;;;;;0.00;0.00;;;;;;;;;;4994263;28;20495;-87
2022/11/30 10:37:53;;;;;;;0.32;0.28;;;;;;;;;;4994526;28;20118;-86
2022/11/30 10:40:25;;;;;;;0.00;0.00;;;;;;;;;;4978314;28;20038;-86
2022/11/30 10:42:57;;;;;;;0.00;0.00;;;;;;;;;;4994630;28;20100;-86
2022/11/30 10:45:24;;;;;;;0.00;0.00;;;;;;;;;;4994673;28;20042;-87
2022/11/30 10:48:01;;;;;;;0.00;0.00;;;;;;;;;;4978184;28;20410;-85
2022/11/30 10:50:28;;;;;;;0.00;0.00;;;;;;;;;;4978022;28;20042;-87
2022/11/30 10:52:56;;;;;;;0.10;0.10;;;;;;;;;;4994511;28;20435;-86
2022/11/30 10:55:23;;;;;;;0.00;0.00;;;;;;;;;;4975887;28;20395;-87
2022/11/30 10:57:55;;;;;;;0.00;0.00;;;;;;;;;;4995962;28;20042;-86
2022/11/30 11:00:23;;;;;;;0.00;0.00;;;;;;;;;;5013515;28;20042;-86
2022/11/30 11:02:50;;;;;;;0.00;0.00;;;;;;;;;;5013760;28;20075;-86
2022/11/30 11:05:24;;;;;;;0.05;0.05;;;;;;;;;;5014356;28;20046;-86
2022/11/30 11:07:51;;;;;;;0.08;0.08;;;;;;;;;;5013503;28;20049;-86
2022/11/30 11:10:20;;;;;;;0.00;0.00;;;;;;;;;;5013517;28;20042;-85
2022/11/30 11:12:48;;;;;;;0.00;0.00;;;;;;;;;;5013413;28;20185;-86
2022/11/30 11:15:21;;;;;;;0.13;0.10;;;;;;;;;;5013035;28;20474;-86
2022/11/30 11:17:47;;;;;;;0.00;0.00;;;;;;;;;;5012934;28;20538;-86
2022/11/30 11:20:28;;;;;;;0.00;0.00;;;;;;;;;;5012941;28;20061;-87
2022/11/30 11:22:54;;;;;;;0.00;0.00;;;;;;;;;;5014079;28;20049;-86
2022/11/30 11:25:31;;;;;;;0.00;0.00;;;;;;;;;;5015267;28;20495;-85
2022/11/30 11:28:12;;;;;;;0.03;0.00;;;;;;;;;;4998135;28;20049;-87
2022/11/30 11:30:38;;;;;;;0.00;0.00;;;;;;;;;;5011939;28;20058;-86
2022/11/30 11:33:18;;;;;;;0.00;0.00;;;;;;;;;;5013813;28;20042;-85
2022/11/30 11:35:45;;;;;;;2.28;0.45;;;;;;;;;;5014547;28;20132;-86
2022/11/30 11:38:38;;;;;;;0.10;0.00;;;;;;;;;;5014952;28;20033;-86
2022/11/30 11:41:21;;;;;;;0.00;0.00;;;;;;;;;;5013473;28;20038;-86
2022/11/30 11:43:59;;;;;;;0.00;0.00;;;;;;;;;;5013398;28;20041;-87
2022/11/30 11:46:35;;;;;;;0.22;0.10;;;;;;;;;;5013122;28;20128;-84
2022/11/30 11:49:13;;;;;;;0.00;0.00;;;;;;;;;;5013155;28;20053;-86
2022/11/30 11:51:45;;;;;;;0.00;0.00;;;;;;;;;;4996763;28;20049;-86
2022/11/30 11:54:23;;;;;;;0.47;0.28;;;;;;;;;;5012904;28;20118;-86
2022/11/30 11:56:49;;;;;;;0.00;0.00;;;;;;;;;;5012712;28;20046;-86
2022/11/30 11:59:33;;;;;;;0.00;0.00;;;;;;;;;;5012916;28;20049;-86
2022/11/30 12:02:12;;;;;;;0.00;0.00;;;;;;;;;;5012832;28;20042;-87
2022/11/30 12:04:42;;;;;;;0.00;0.00;;;;;;;;;;5012848;28;20328;-86
2022/11/30 12:07:22;;;;;;;0.00;0.00;;;;;;;;;;5012529;28;20060;-86
2022/11/30 12:10:04;;;;;;;0.00;0.00;;;;;;;;;;5011962;28;20126;-84
2022/11/30 12:12:39;;;;;;;0.00;0.00;;;;;;;;;;5028226;28;20533;-85
2022/11/30 12:15:11;;;;;;;0.40;0.00;;;;;;;;;;5008800;28;20046;-85
2022/11/30 12:17:56;;;;;;;0.10;0.10;;;;;;;;;;5012264;28;20121;-85
2022/11/30 12:20:36;;;;;;;0.00;0.00;;;;;;;;;;5012347;28;20380;-86
2022/11/30 12:23:23;;;;;;;0.00;0.00;;;;;;;;;;5012057;28;20103;-86
2022/11/30 12:25:53;;;;;;;0.00;0.00;;;;;;;;;;5012276;28;20100;-88
2022/11/30 12:28:30;;;;;;;0.00;0.00;;;;;;;;;;5012108;28;20046;-87
2022/11/30 12:31:16;;;;;;;0.38;0.20;;;;;;;;;;4993095;28;20108;-87
2022/11/30 12:34:02;;;;;;;0.00;0.00;;;;;;;;;;5012319;28;20046;-85
2022/11/30 12:36:35;;;;;;;0.00;0.00;;;;;;;;;;5011610;28;20125;-86
2022/11/30 12:39:05;;;;;;;0.00;0.00;;;;;;;;;;5011955;28;20110;-86
2022/11/30 12:41:45;;;;;;;0.00;0.00;;;;;;;;;;5013241;28;20040;-85
2022/11/30 12:44:30;;;;;;;0.05;0.03;;;;;;;;;;5011412;28;20038;-85
2022/11/30 12:47:17;;;;;;;0.00;0.00;;;;;;;;;;4984323;28;20051;-89
2022/11/30 12:50:03;;;;;;;0.00;0.00;;;;;;;;;;4959406;28;20094;-86
2022/11/30 12:52:35;;;;;;;0.00;0.00;;;;;;;;;;4975184;28;20111;-85
2022/11/30 12:55:01;;;;;;;0.65;0.55;;;;;;;;;;4959024;28;20407;-87
2022/11/30 12:57:35;;;;;;;0.10;0.05;;;;;;;;;;4959037;28;20484;-87
2022/11/30 13:00:04;;;;;;;0.00;0.00;;;;;;;;;;4975092;28;20051;-87
2022/11/30 13:02:36;;;;;;;0.20;0.20;;;;;;;;;;4975035;28;20541;-87
2022/11/30 13:05:06;;;;;;;0.00;0.00;;;;;;;;;;4975102;28;20081;-87
2022/11/30 13:07:34;;;;;;;0.43;0.15;;;;;;;;;;4975262;28;20504;-86
2022/11/30 13:10:03;;;;;;;0.22;0.20;;;;;;;;;;4951254;28;20522;-87
2022/11/30 13:12:37;;;;;;;0.00;0.00;;;;;;;;;;4955684;28;20503;-86
2022/11/30 13:15:05;;;;;;;0.00;0.00;;;;;;;;;;4961612;28;20050;-86
2022/11/30 13:17:32;;;;;;;0.00;0.00;;;;;;;;;;4956268;28;20046;-87
2022/11/30 13:20:06;;;;;;;0.00;0.00;;;;;;;;;;4956208;28;20453;-87
2022/11/30 13:22:35;;;;;;;0.00;0.00;;;;;;;;;;4956309;28;20047;-86
2022/11/30 13:25:26;;;;;;;0.00;0.00;;;;;;;;;;4956524;28;20042;-86
2022/11/30 13:28:05;;;;;;;0.00;0.00;;;;;;;;;;4964822;28;20051;-87
2022/11/30 13:30:34;;;;;;;0.00;0.00;;;;;;;;;;4972386;28;20129;-87
2022/11/30 13:33:19;;;;;;;0.00;0.00;;;;;;;;;;4955789;28;20514;-87
2022/11/30 13:35:53;;;;;;;0.47;0.25;;;;;;;;;;4956377;28;20076;-87
2022/11/30 13:38:20;;;;;;;0.00;0.00;;;;;;;;;;4956152;28;20042;-87
2022/11/30 13:40:53;;;;;;;0.20;0.10;;;;;;;;;;4972432;28;20042;-87
2022/11/30 13:43:21;;;;;;;0.00;0.00;;;;;;;;;;4972071;28;20039;-87
2022/11/30 13:45:47;;;;;;;0.00;0.00;;;;;;;;;;4956298;28;20042;-87
2022/11/30 13:48:18;;;;;;;0.00;0.00;;;;;;;;;;4975135;28;20046;-87
2022/11/30 13:50:46;;;;;;;0.00;0.00;;;;;;;;;;4959878;28;20047;-87
2022/11/30 13:53:20;;;;;;;0.00;0.00;;;;;;;;;;4959884;28;20043;-87
2022/11/30 13:55:50;;;;;;;0.00;0.00;;;;;;;;;;4975944;28;20043;-86
2022/11/30 13:58:17;;;;;;;0.00;0.00;;;;;;;;;;4975693;28;20053;-88
2022/11/30 14:00:43;;;;;;;0.00;0.00;;;;;;;;;;4959504;28;20043;-87
2022/11/30 14:03:21;;;;;;;0.00;0.00;;;;;;;;;;4959415;28;20097;-88
2022/11/30 14:06:00;;;;;;;0.00;0.00;;;;;;;;;;4959910;28;20074;-88
2022/11/30 14:08:38;;;;;;;0.00;0.00;;;;;;;;;;4959121;28;20052;-87
2022/11/30 14:11:23;;;;;;;0.00;0.00;;;;;;;;;;4975830;28;20435;-87
2022/11/30 14:13:49;;;;;;;0.00;0.00;;;;;;;;;;4975519;28;20126;-88
2022/11/30 14:16:23;;;;;;;0.00;0.00;;;;;;;;;;4975683;28;20047;-86
2022/11/30 14:18:50;;;;;;;0.00;0.00;;;;;;;;;;4975174;28;20063;-87
2022/11/30 14:21:28;;;;;;;0.00;0.00;;;;;;;;;;4959265;28;20055;-88
2022/11/30 14:23:59;;;;;;;0.00;0.00;;;;;;;;;;4975505;28;20376;-88
2022/11/30 14:26:28;;;;;;;0.00;0.00;;;;;;;;;;4975421;28;20373;-87
2022/11/30 14:29:02;;;;;;;0.00;0.00;;;;;;;;;;4975013;28;20408;-87
2022/11/30 14:31:31;;;;;;;0.00;0.00;;;;;;;;;;4975261;28;20050;-87
2022/11/30 14:34:00;;;;;;;0.00;0.00;;;;;;;;;;4974885;28;20492;-87
2022/11/30 14:36:32;;;;;;;0.00;0.00;;;;;;;;;;4958896;28;20139;-88
2022/11/30 14:38:58;;;;;;;0.00;0.00;;;;;;;;;;4959060;28;20081;-88
2022/11/30 14:41:26;;;;;;;2.63;0.47;;;;;;;;;;4975006;28;20085;-86
2022/11/30 14:43:59;;;;;;;0.00;0.00;;;;;;;;;;4975015;28;20043;-87
2022/11/30 14:46:26;;;;;;;0.00;0.00;;;;;;;;;;4974789;28;20448;-87
2022/11/30 14:49:12;;;;;;;0.00;0.00;;;;;;;;;;4974540;28;20050;-87
2022/11/30 14:51:38;;;;;;;0.00;0.00;;;;;;;;;;4958713;28;20047;-86
2022/11/30 14:54:11;;;;;;;0.00;0.00;;;;;;;;;;4958332;28;20086;-86
2022/11/30 14:56:45;;;;;;;0.00;0.00;;;;;;;;;;4974569;28;20484;-87
2022/11/30 14:59:17;;;;;;;0.00;0.00;;;;;;;;;;4973965;28;20472;-86